Aérodrome :
LOGIN :

S'inscrire | Disclaimer

   EN    FR    IT 

 










Légende :    VFR   VFR Marginal   IFR   IFR Intensif   IFR Très Intensif
Visi : 
Plafond : 
>= 8 km
>= 3000ft
5 à 8 km
1000 à 3000 ft
1500m à 5 km
500 à 1000 ft
800 à 1500m
200 à 500 ft
< 800m
< 200 ft
Symboles :   Orages  Brouillard  Fortes neiges  Fortes précipitations  Vent > 20 kt
SIGMETs :   Divers  Orages  Givrage  Turbulence  Onde Orograph.  Cendres Volcan.







- Altitude de l'aérodrome : 751 ft
- Code IATA : ENC
- Voir les cartes d'approche


LFSN - Nancy Essey

DERNIER METAR :
  • 161500Z AUTO 25007KT 9999 -RA FEW032 BKN062 BKN072 06/04 Q1001

METARs EXPIRÉS :
  • 161430Z AUTO 25008KT 220V290 9999 FEW037 BKN110 06/04 Q1001
  • 161400Z AUTO 26012KT 230V290 9999 FEW008/// SCT041/// BKN066/// ///TCU 06/04 Q1001
  • 161330Z AUTO 27010KT 230V310 7000 -RA FEW007/// BKN031/// BKN040/// ///TCU 05/03 Q1001
  • 161300Z AUTO 27012G24KT 210V300 9999 -RA FEW016/// SCT023/// BKN035/// ///CB 05/03 Q1002
  • 161230Z AUTO 25008KT 210V300 9999 BKN022/// BKN043/// OVC049/// ///TCU 08/04 Q1001

Prévision TAF périmée.
Pas de NOTAMs connus pour ce terrain.
2 SIGMETs publiés pour la FIR Reims (LFEE) :
 
Turbulence forte
LFEE SIGMET 6 VALID 161600/162000 LFPW
LFEE REIMS FIR/UIR SEV TURB FCST WI N4900 E00815 - N4730 E00730 - N4630 E00615 - N4630 E00545 - N4715 E00545 - N4900 E00700 - N4900 E00815 SFC/FL100 STNR NC=
Turbulence forte
LFEE SIGMET 5 VALID 161200/161600 LFPW
LFEE REIMS FIR/UIR SEV TURB FCST WI N4915 E00715 - N4900 E00815 - N4730 E00730 - N4630 E00615 - N4630 E00545 - N4715 E00530 - N4915 E00715 SFC/FL100 STNR NC=



MET'MAP, la Météo Aéronautique d'un coup d'oeil ! - Copyright ORBIFLY Décembre 2007 - Disclaimer

ORBIFLY MET'MAP TEAM :

Programmation & Développement : Alexandra Zaïnal
Conception & Développement : Baudouin d'Aumeries
Co-Programmation & Développement : Marc-Olivier Méhu
Soutien technique & logistique : Manuel Goepfert

Contact : metmap@orbifly.com




SOURCES & CREDITS :

   NOAA